Schall — DNBQ — position and weather

sailwx.info

Track history (hours):
 
Tides and Currents Weather Stations Pressure Air Temp Water Temp Dewpoint Dewpoint Depression Visibility Wind Speed Wind Dir Waves Ship Positions

Oceanographic research ship Schall (Germany)

Detailed information on ship capabilities available from University of Delaware's Ocean Information Center.

Last reported at 2017-Apr-22 07:13 UTC. Time now 2017-Apr-23 15:52 UTC.
Position N 54°05' E 009°19'.

Length 50 m; draft 2 m.

Type: Ship. MMSI: 211236290.

Date/timePositionNaut miles runAvg speedWind from/ knotsBaromVisibWave heightAir tempDewpointWater temp
2017-Apr-22 07:13N 54°05' E 009°19'2 8.0
2017-Apr-22 07:00N 54°04' E 009°19'4 7.9
2017-Apr-22 06:30N 53°60' E 009°18'4 8.0
2017-Apr-22 06:00N 53°57' E 009°14'4 6.8
2017-Apr-22 05:29N 53°54' E 009°09'0 0.0
2017-Apr-22 04:56N 53°54' E 009°09'0 0.0
2017-Apr-22 04:26N 53°54' E 009°09'0 0.0
2017-Apr-22 03:59N 53°54' E 009°09'0 0.0
2017-Apr-22 03:26N 53°54' E 009°09'0 0.0
2017-Apr-22 02:56N 53°54' E 009°09'0 0.0
2017-Apr-22 02:29N 53°54' E 009°09'0 0.0
2017-Apr-22 01:59N 53°54' E 009°09'0 0.0
2017-Apr-22 01:29N 53°54' E 009°09'0 0.0
2017-Apr-22 00:59N 53°54' E 009°09'0 0.0
2017-Apr-22 00:29N 53°54' E 009°09'0 0.0
2017-Apr-21 23:59N 53°54' E 009°09'0 0.0
2017-Apr-21 23:29N 53°54' E 009°09'0 0.0
2017-Apr-21 22:59N 53°54' E 009°09'0 0.0
2017-Apr-21 22:29N 53°54' E 009°09'0 0.0
2017-Apr-21 21:59N 53°54' E 009°09'0 0.0
2017-Apr-21 21:29N 53°54' E 009°09'0 0.0
2017-Apr-21 20:59N 53°54' E 009°09'0 0.0
2017-Apr-21 20:29N 53°54' E 009°09'0 0.0
2017-Apr-21 19:59N 53°54' E 009°09'0 0.0
2017-Apr-21 19:29N 53°54' E 009°09'0 0.0
2017-Apr-21 18:59N 53°54' E 009°09'0 0.0
2017-Apr-21 18:29N 53°54' E 009°09'0 0.0
2017-Apr-21 17:56N 53°54' E 009°09'0 0.0
2017-Apr-21 17:30N 53°54' E 009°09'1 1.3
2017-Apr-21 17:00N 53°54' E 009°09'3 5.9
2017-Apr-21 16:30N 53°52' E 009°04'5 9.2
2017-Apr-21 16:00N 53°51' E 008°57'4 8.6
2017-Apr-21 15:31N 53°50' E 008°50'4 7.5
2017-Apr-21 15:01N 53°52' E 008°44'4 6.9
2017-Apr-21 14:29N 53°55' E 008°41'7 7.1
2017-Apr-21 13:30N 53°58' E 008°30'4 7.4
2017-Apr-21 12:59N 53°59' E 008°24'4 8.1
2017-Apr-21 12:30N 53°59' E 008°17'5 7.7
2017-Apr-21 11:51N 53°57' E 008°10'3 6.9
2017-Apr-21 11:28N 53°54' E 008°08'3 7.1
2017-Apr-21 11:01N 53°51' E 008°07'4 8.9
2017-Apr-21 10:31N 53°47' E 008°10'5 9.8
2017-Apr-21 10:01N 53°44' E 008°16'510.4
2017-Apr-21 09:30N 53°40' E 008°23'5 9.8
2017-Apr-21 09:00N 53°37' E 008°29'5 9.7
2017-Apr-21 08:30N 53°33' E 008°34'2 3.2
2017-Apr-21 08:00N 53°31' E 008°35'0 0.5
2017-Apr-21 07:29N 53°31' E 008°35'0 0.0
2017-Apr-21 06:59N 53°31' E 008°35'0 0.0
2017-Apr-21 06:29N 53°31' E 008°35'0 0.0
2017-Apr-21 05:59N 53°31' E 008°35'0 0.0
2017-Apr-21 05:29N 53°31' E 008°35'0 0.0
2017-Apr-21 04:59N 53°31' E 008°35'0 0.0
2017-Apr-21 04:29N 53°31' E 008°35'0 0.0
2017-Apr-21 03:59N 53°31' E 008°35'0 0.0
2017-Apr-21 03:29N 53°31' E 008°35'0 0.0
2017-Apr-21 02:59N 53°31' E 008°35'0 0.0
2017-Apr-21 02:29N 53°31' E 008°35'0 0.0
2017-Apr-21 01:59N 53°31' E 008°35'0 0.0
2017-Apr-21 01:29N 53°31' E 008°35'0 0.0
2017-Apr-21 00:59N 53°31' E 008°35'0 0.0
2017-Apr-21 00:29N 53°31' E 008°35'0 0.0
2017-Apr-20 23:56N 53°31' E 008°35'0 0.0
2017-Apr-20 23:29N 53°31' E 008°35'0 0.0
2017-Apr-20 22:59N 53°31' E 008°35'0 0.0
2017-Apr-20 22:29N 53°31' E 008°35'0 0.0
2017-Apr-20 21:59N 53°31' E 008°35'0 0.0
2017-Apr-20 21:29N 53°31' E 008°35'0 0.0
2017-Apr-20 20:59N 53°31' E 008°35'0 0.0
2017-Apr-20 20:29N 53°31' E 008°35'0 0.0
2017-Apr-20 19:59N 53°31' E 008°35'0 0.0
2017-Apr-20 19:29N 53°31' E 008°35'0 0.0
2017-Apr-20 18:59N 53°31' E 008°35'0 0.0
2017-Apr-20 18:29N 53°31' E 008°35'0 0.0
2017-Apr-20 17:59N 53°31' E 008°35'0 0.0
2017-Apr-20 17:29N 53°31' E 008°35'0 0.0
2017-Apr-20 16:59N 53°31' E 008°35'0 0.0
2017-Apr-20 16:29N 53°31' E 008°35'0 0.0
2017-Apr-20 15:56N 53°31' E 008°35'0 0.0
2017-Apr-20 15:26N 53°31' E 008°35'0 0.0
2017-Apr-20 14:59N 53°31' E 008°35'0 0.0
2017-Apr-20 13:59N 53°31' E 008°35'0 0.0
2017-Apr-20 13:29N 53°31' E 008°35'0 0.0
2017-Apr-20 12:59N 53°31' E 008°35'0 0.0
2017-Apr-20 12:29N 53°31' E 008°35'0 0.0
2017-Apr-20 11:59N 53°31' E 008°35'0 0.0
2017-Apr-20 11:29N 53°31' E 008°35'0 0.0
2017-Apr-20 10:59N 53°31' E 008°35'0 0.0
2017-Apr-20 10:29N 53°31' E 008°35'0 0.0
2017-Apr-20 09:59N 53°31' E 008°35'0 0.0
2017-Apr-20 09:29N 53°31' E 008°35'0 0.0
2017-Apr-20 08:59N 53°31' E 008°35'0 0.0
2017-Apr-20 08:29N 53°31' E 008°35'0 0.0
2017-Apr-20 07:59N 53°31' E 008°35'0 0.0
2017-Apr-20 07:29N 53°31' E 008°35'0 0.0
2017-Apr-20 06:59N 53°31' E 008°35'0 0.0
2017-Apr-20 06:29N 53°31' E 008°35'0 0.0
2017-Apr-20 05:59N 53°31' E 008°35'0 0.0
2017-Apr-20 05:29N 53°31' E 008°35'0 0.0
2017-Apr-20 04:59N 53°31' E 008°35'0 0.0
2017-Apr-20 04:29N 53°31' E 008°35'0 0.0
2017-Apr-20 03:59N 53°31' E 008°35'0 0.0
2017-Apr-20 03:29N 53°31' E 008°35'0 0.0
2017-Apr-20 02:59N 53°31' E 008°35'0 0.0
2017-Apr-20 02:29N 53°31' E 008°35'0 0.0
2017-Apr-20 01:59N 53°31' E 008°35'0 0.0
2017-Apr-20 01:29N 53°31' E 008°35'0 0.0
2017-Apr-20 00:59N 53°31' E 008°35'0 0.0
2017-Apr-20 00:29N 53°31' E 008°35'0 0.0
2017-Apr-19 23:59N 53°31' E 008°35'0 0.0
2017-Apr-19 23:29N 53°31' E 008°35'0 0.0
2017-Apr-19 22:59N 53°31' E 008°35'0 0.0
2017-Apr-19 22:29N 53°31' E 008°35'0 0.0
2017-Apr-19 21:59N 53°31' E 008°35'0 0.0
2017-Apr-19 21:29N 53°31' E 008°35'0 0.0
2017-Apr-19 20:59N 53°31' E 008°35'0 0.0
2017-Apr-19 20:29N 53°31' E 008°35'0 0.0
2017-Apr-19 19:59N 53°31' E 008°35'0 0.0
2017-Apr-19 19:29N 53°31' E 008°35'0 0.0
2017-Apr-19 18:59N 53°31' E 008°35'0 0.0
2017-Apr-19 18:29N 53°31' E 008°35'0 0.0
2017-Apr-19 17:59N 53°31' E 008°35'0 0.0
2017-Apr-19 17:29N 53°31' E 008°35'0 0.0
2017-Apr-19 16:59N 53°31' E 008°35'0 0.0
2017-Apr-19 16:29N 53°31' E 008°35'0 0.0
2017-Apr-19 15:59N 53°31' E 008°35'0 0.0
2017-Apr-19 15:29N 53°31' E 008°35'0 0.0
2017-Apr-19 14:59N 53°31' E 008°35'0 0.0
2017-Apr-19 14:29N 53°31' E 008°35'0 0.0
2017-Apr-19 13:20N 53°31' E 008°35'0 0.0
2017-Apr-19 12:59N 53°31' E 008°35'0 0.0
2017-Apr-19 12:29N 53°31' E 008°35'0 0.0
2017-Apr-19 11:59N 53°31' E 008°35'0 0.0
2017-Apr-19 11:29N 53°31' E 008°35'0 0.0
2017-Apr-19 10:59N 53°31' E 008°35'0 0.0
2017-Apr-19 10:29N 53°31' E 008°35'0 0.0
2017-Apr-19 09:59N 53°31' E 008°35'0 0.0
2017-Apr-19 09:29N 53°31' E 008°35'0 0.0
2017-Apr-19 08:59N 53°31' E 008°35'0 0.0
2017-Apr-19 08:26N 53°31' E 008°35'0 0.0
2017-Apr-19 07:59N 53°31' E 008°35'0 0.0
2017-Apr-19 07:29N 53°31' E 008°35'0 0.0
2017-Apr-19 06:56N 53°31' E 008°35'0 0.0
2017-Apr-19 06:29N 53°31' E 008°35'0 0.0
2017-Apr-19 05:59N 53°31' E 008°35'0 0.0
2017-Apr-19 05:29N 53°31' E 008°35'0 0.0
2017-Apr-19 04:59N 53°31' E 008°35'0 0.0
2017-Apr-19 04:29N 53°31' E 008°35'0 0.0
2017-Apr-19 03:59N 53°31' E 008°35'0 0.0
2017-Apr-19 03:29N 53°31' E 008°35'0 0.0
2017-Apr-19 02:59N 53°31' E 008°35'0 0.0
2017-Apr-19 02:26N 53°31' E 008°35'0 0.0
2017-Apr-19 01:59N 53°31' E 008°35'0 0.0
2017-Apr-19 01:29N 53°31' E 008°35'0 0.0
2017-Apr-19 00:59N 53°31' E 008°35'0 0.0
2017-Apr-19 00:26N 53°31' E 008°35'0 0.0
2017-Apr-18 23:59N 53°31' E 008°35'0 0.0
2017-Apr-18 23:29N 53°31' E 008°35'0 0.0
2017-Apr-18 22:59N 53°31' E 008°35'0 0.0
2017-Apr-18 22:29N 53°31' E 008°35'0 0.0
2017-Apr-18 21:59N 53°31' E 008°35'0 0.0
2017-Apr-18 21:29N 53°31' E 008°35'0 0.0
2017-Apr-18 20:59N 53°31' E 008°35'0 0.0
2017-Apr-18 20:26N 53°31' E 008°35'0 0.0
2017-Apr-18 19:59N 53°31' E 008°35'0 0.0
2017-Apr-18 19:29N 53°31' E 008°35'0 0.0
2017-Apr-18 18:59N 53°31' E 008°35'0 0.0
2017-Apr-18 18:29N 53°31' E 008°35'0 0.0
2017-Apr-18 17:59N 53°31' E 008°35'0 0.0
2017-Apr-18 17:29N 53°31' E 008°35'0 0.0
2017-Apr-18 16:59N 53°31' E 008°35'0 0.0
2017-Apr-18 16:29N 53°31' E 008°35'0 0.0
2017-Apr-18 15:59N 53°31' E 008°35'0 0.0
2017-Apr-18 15:29N 53°31' E 008°35'0 0.0
2017-Apr-18 14:59N 53°31' E 008°35'0 0.0
2017-Apr-18 14:29N 53°31' E 008°35'0 0.0
2017-Apr-18 13:29N 53°31' E 008°35'0 0.0
2017-Apr-18 12:59N 53°31' E 008°35'0 0.0
2017-Apr-18 12:29N 53°31' E 008°35'0 0.0
2017-Apr-18 11:59N 53°31' E 008°35'0 0.0
2017-Apr-18 11:29N 53°31' E 008°35'0 0.0
2017-Apr-18 10:59N 53°31' E 008°35'0 0.0
2017-Apr-18 10:29N 53°31' E 008°35'0 0.0
2017-Apr-18 09:59N 53°31' E 008°35'0 0.0
2017-Apr-18 09:29N 53°31' E 008°35'0 0.0
2017-Apr-18 08:59N 53°31' E 008°35'0 0.0
2017-Apr-18 08:29N 53°31' E 008°35'0 0.0
2017-Apr-18 07:59N 53°31' E 008°35'0 0.0
2017-Apr-18 07:29N 53°31' E 008°35'0 0.0
2017-Apr-18 06:56N 53°31' E 008°35'0 0.0
2017-Apr-18 06:29N 53°31' E 008°35'0 0.0
2017-Apr-18 05:59N 53°31' E 008°35'0 0.0
2017-Apr-18 05:20N 53°31' E 008°35'0 0.0
2017-Apr-18 04:59N 53°31' E 008°35'0 0.0
2017-Apr-18 04:29N 53°31' E 008°35'0 0.0
2017-Apr-18 03:59N 53°31' E 008°35'0 0.0
2017-Apr-18 03:29N 53°31' E 008°35'0 0.0
2017-Apr-18 02:59N 53°31' E 008°35'0 0.0
2017-Apr-18 02:29N 53°31' E 008°35'0 0.0
2017-Apr-18 01:59N 53°31' E 008°35'0 0.0
2017-Apr-18 01:29N 53°31' E 008°35'0 0.0
2017-Apr-18 00:59N 53°31' E 008°35'0 0.0
2017-Apr-18 00:29N 53°31' E 008°35'0 0.0
2017-Apr-17 23:59N 53°31' E 008°35'0 0.0
2017-Apr-17 23:29N 53°31' E 008°35'0 0.0
2017-Apr-17 22:59N 53°31' E 008°35'0 0.0
2017-Apr-17 22:29N 53°31' E 008°35'0 0.0
2017-Apr-17 21:59N 53°31' E 008°35'0 0.0
2017-Apr-17 21:29N 53°31' E 008°35'0 0.0
2017-Apr-17 20:59N 53°31' E 008°35'0 0.0
2017-Apr-17 20:29N 53°31' E 008°35'0 0.0
2017-Apr-17 19:59N 53°31' E 008°35'0 0.0
2017-Apr-17 19:29N 53°31' E 008°35'0 0.0
2017-Apr-17 18:59N 53°31' E 008°35'0 0.0
2017-Apr-17 18:29N 53°31' E 008°35'0 0.0
2017-Apr-17 17:59N 53°31' E 008°35'0 0.0
2017-Apr-17 17:29N 53°31' E 008°35'0 0.0
2017-Apr-17 16:59N 53°31' E 008°35'0 0.0
2017-Apr-17 16:29N 53°31' E 008°35'0 0.0
2017-Apr-17 15:59N 53°31' E 008°35'0 0.0
2017-Apr-17 15:29N 53°31' E 008°35'0 0.0
2017-Apr-17 14:59N 53°31' E 008°35'0 0.0
2017-Apr-17 14:29N 53°31' E 008°35'0 0.0
2017-Apr-17 13:29N 53°31' E 008°35'0 0.0
2017-Apr-17 12:59N 53°31' E 008°35'0 0.0
2017-Apr-17 12:29N 53°31' E 008°35'0 0.0
2017-Apr-17 11:59N 53°31' E 008°35'0 0.0
2017-Apr-17 11:29N 53°31' E 008°35'0 0.0
2017-Apr-17 10:59N 53°31' E 008°35'0 0.0
2017-Apr-17 10:29N 53°31' E 008°35'0 0.0
2017-Apr-17 09:59N 53°31' E 008°35'0 0.0
2017-Apr-17 09:29N 53°31' E 008°35'0 0.0
2017-Apr-17 08:59N 53°31' E 008°35'0 0.0
2017-Apr-17 08:29N 53°31' E 008°35'0 0.0
2017-Apr-17 07:59N 53°31' E 008°35'0 0.0
2017-Apr-17 07:29N 53°31' E 008°35'0 0.0
2017-Apr-17 06:59N 53°31' E 008°35'0 0.0
2017-Apr-17 06:29N 53°31' E 008°35'0 0.0
2017-Apr-17 05:59N 53°31' E 008°35'0 0.0
2017-Apr-17 05:29N 53°31' E 008°35'0 0.0
2017-Apr-17 04:59N 53°31' E 008°35'0 0.0
2017-Apr-17 04:29N 53°31' E 008°35'0 0.0
2017-Apr-17 03:59N 53°31' E 008°35'0 0.0
2017-Apr-17 03:26N 53°31' E 008°35'0 0.0
2017-Apr-17 02:59N 53°31' E 008°35'0 0.0
2017-Apr-17 02:29N 53°31' E 008°35'0 0.0
2017-Apr-17 01:59N 53°31' E 008°35'0 0.0
2017-Apr-17 01:29N 53°31' E 008°35'0 0.0
2017-Apr-17 00:59N 53°31' E 008°35'0 0.0
2017-Apr-17 00:29N 53°31' E 008°35'0 0.0
2017-Apr-16 23:59N 53°31' E 008°35'0 0.0
2017-Apr-16 23:29N 53°31' E 008°35'0 0.0
2017-Apr-16 22:59N 53°31' E 008°35'0 0.0
2017-Apr-16 22:29N 53°31' E 008°35'0 0.0
2017-Apr-16 21:59N 53°31' E 008°35'0 0.0
2017-Apr-16 21:29N 53°31' E 008°35'0 0.0
2017-Apr-16 20:59N 53°31' E 008°35'0 0.0
2017-Apr-16 20:29N 53°31' E 008°35'0 0.0
2017-Apr-16 19:59N 53°31' E 008°35'0 0.0
2017-Apr-16 19:29N 53°31' E 008°35'0 0.0
2017-Apr-16 18:59N 53°31' E 008°35'0 0.0
2017-Apr-16 18:29N 53°31' E 008°35'0 0.0
2017-Apr-16 17:59N 53°31' E 008°35'0 0.0
2017-Apr-16 17:29N 53°31' E 008°35'0 0.0
2017-Apr-16 16:59N 53°31' E 008°35'0 0.0
2017-Apr-16 16:29N 53°31' E 008°35'0 0.0
2017-Apr-16 15:59N 53°31' E 008°35'0 0.0
2017-Apr-16 15:29N 53°31' E 008°35'0 0.0
2017-Apr-16 14:59N 53°31' E 008°35'0 0.0
2017-Apr-16 13:59N 53°31' E 008°35'0 0.0
2017-Apr-16 13:29N 53°31' E 008°35'0 0.0
2017-Apr-16 12:59N 53°31' E 008°35'0 0.0
2017-Apr-16 12:29N 53°31' E 008°35'0 0.0
2017-Apr-16 11:59N 53°31' E 008°35'0 0.0
2017-Apr-16 11:29N 53°31' E 008°35'0 0.0
2017-Apr-16 10:59N 53°31' E 008°35'0 0.0
2017-Apr-16 10:29N 53°31' E 008°35'0 0.0
2017-Apr-16 09:59N 53°31' E 008°35'0 0.0
2017-Apr-16 09:29N 53°31' E 008°35'0 0.0
2017-Apr-16 08:59N 53°31' E 008°35'0 0.0
2017-Apr-16 08:29N 53°31' E 008°35'0 0.0
2017-Apr-16 07:59N 53°31' E 008°35'0 0.0
2017-Apr-16 07:29N 53°31' E 008°35'0 0.0
2017-Apr-16 06:59N 53°31' E 008°35'0 0.0
2017-Apr-16 06:29N 53°31' E 008°35'0 0.0
2017-Apr-16 05:59N 53°31' E 008°35'0 0.0
2017-Apr-16 05:29N 53°31' E 008°35'0 0.0
2017-Apr-16 04:59N 53°31' E 008°35'0 0.0
2017-Apr-16 04:29N 53°31' E 008°35'0 0.0
2017-Apr-16 03:59N 53°31' E 008°35'0 0.0
2017-Apr-16 03:29N 53°31' E 008°35'0 0.0
2017-Apr-16 02:59N 53°31' E 008°35'0 0.0
2017-Apr-16 02:29N 53°31' E 008°35'0 0.0
2017-Apr-16 01:59N 53°31' E 008°35'0 0.0
2017-Apr-16 01:29N 53°31' E 008°35'0 0.0
2017-Apr-16 00:59N 53°31' E 008°35'0 0.0
2017-Apr-16 00:29N 53°31' E 008°35'0 0.0
2017-Apr-15 23:59N 53°31' E 008°35'0 0.0
2017-Apr-15 23:29N 53°31' E 008°35'0 0.0
2017-Apr-15 22:59N 53°31' E 008°35'0 0.0
2017-Apr-15 22:29N 53°31' E 008°35'0 0.0
2017-Apr-15 21:59N 53°31' E 008°35'0 0.0
2017-Apr-15 21:29N 53°31' E 008°35'0 0.0
2017-Apr-15 20:59N 53°31' E 008°35'0 0.0
2017-Apr-15 20:29N 53°31' E 008°35'0 0.0
2017-Apr-15 19:59N 53°31' E 008°35'0 0.0
2017-Apr-15 19:29N 53°31' E 008°35'0 0.0
2017-Apr-15 18:59N 53°31' E 008°35'0 0.0
2017-Apr-15 18:29N 53°31' E 008°35'0 0.0
2017-Apr-15 17:59N 53°31' E 008°35'0 0.0
2017-Apr-15 17:29N 53°31' E 008°35'0 0.0
2017-Apr-15 16:59N 53°31' E 008°35'0 0.0
2017-Apr-15 16:29N 53°31' E 008°35'0 0.0
2017-Apr-15 15:53N 53°31' E 008°35'0 0.0
2017-Apr-15 15:29N 53°31' E 008°35'0 0.0
2017-Apr-15 14:59N 53°31' E 008°35'0 0.0
2017-Apr-15 14:29N 53°31' E 008°35'0 0.0
2017-Apr-15 13:29N 53°31' E 008°35'0 0.0
2017-Apr-15 12:59N 53°31' E 008°35'0 0.0
2017-Apr-15 12:29N 53°31' E 008°35'0 0.0
2017-Apr-15 11:59N 53°31' E 008°35'0 0.0
2017-Apr-15 11:29N 53°31' E 008°35'0 0.0
2017-Apr-15 10:59N 53°31' E 008°35'0 0.0
2017-Apr-15 10:29N 53°31' E 008°35'0 0.0
2017-Apr-15 09:59N 53°31' E 008°35'0 0.0
2017-Apr-15 09:29N 53°31' E 008°35'0 0.0
2017-Apr-15 08:59N 53°31' E 008°35'0 0.0
2017-Apr-15 08:29N 53°31' E 008°35'0 0.0
2017-Apr-15 07:59N 53°31' E 008°35'0 0.0
2017-Apr-15 07:29N 53°31' E 008°35'0 0.0
2017-Apr-15 06:59N 53°31' E 008°35'0 0.0
2017-Apr-15 06:29N 53°31' E 008°35'0 0.0
2017-Apr-15 05:59N 53°31' E 008°35'0 0.0
2017-Apr-15 05:29N 53°31' E 008°35'0 0.0
2017-Apr-15 04:59N 53°31' E 008°35'0 0.0
2017-Apr-15 04:29N 53°31' E 008°35'0 0.0
2017-Apr-15 03:59N 53°31' E 008°35'0 0.0
2017-Apr-15 03:29N 53°31' E 008°35'0 0.0
2017-Apr-15 02:59N 53°31' E 008°35'0 0.0
2017-Apr-15 02:29N 53°31' E 008°35'0 0.0
2017-Apr-15 01:59N 53°31' E 008°35'0 0.0
2017-Apr-15 01:20N 53°31' E 008°35'0 0.0
2017-Apr-15 00:59N 53°31' E 008°35'0 0.0
2017-Apr-15 00:29N 53°31' E 008°35'0 0.0
2017-Apr-14 23:56N 53°31' E 008°35'0 0.0
2017-Apr-14 23:23N 53°31' E 008°35'0 0.0
2017-Apr-14 22:59N 53°31' E 008°35'0 0.0
2017-Apr-14 22:29N 53°31' E 008°35'0 0.0
2017-Apr-14 21:59N 53°31' E 008°35'0 0.0
2017-Apr-14 21:29N 53°31' E 008°35'0 0.0
2017-Apr-14 20:53N 53°31' E 008°35'0 0.0
2017-Apr-14 20:29N 53°31' E 008°35'0 0.0
2017-Apr-14 19:59N 53°31' E 008°35'0 0.0
2017-Apr-14 19:29N 53°31' E 008°35'0 0.0
2017-Apr-14 18:59N 53°31' E 008°35'0 0.0
2017-Apr-14 18:26N 53°31' E 008°35'0 0.0
2017-Apr-14 17:59N 53°31' E 008°35'0 0.0
2017-Apr-14 17:23N 53°31' E 008°35'0 0.0
2017-Apr-14 16:56N 53°31' E 008°35'0 0.0
2017-Apr-14 16:29N 53°31' E 008°35'0 0.0
2017-Apr-14 15:59N 53°31' E 008°35'0 0.0
2017-Apr-14 15:26N 53°31' E 008°35'0 0.0
2017-Apr-14 14:59N 53°31' E 008°35'0 0.0
2017-Apr-14 14:29N 53°31' E 008°35'0 0.0
2017-Apr-14 13:29N 53°31' E 008°35'0 0.0
2017-Apr-14 12:59N 53°31' E 008°35'0 0.0
2017-Apr-14 12:29N 53°31' E 008°35'0 0.0
2017-Apr-14 11:59N 53°31' E 008°35'0 0.0
2017-Apr-14 11:29N 53°31' E 008°35'0 0.0
2017-Apr-14 10:59N 53°31' E 008°35'0 0.0
2017-Apr-14 10:29N 53°31' E 008°35'0 0.0
2017-Apr-14 09:59N 53°31' E 008°35'0 0.0
2017-Apr-14 09:26N 53°31' E 008°35'0 0.0
2017-Apr-14 08:59N 53°31' E 008°35'0 0.0
2017-Apr-14 08:29N 53°31' E 008°35'0 0.0
2017-Apr-14 07:59N 53°31' E 008°35'0 0.0
2017-Apr-14 07:29N 53°31' E 008°35'0 0.0
2017-Apr-14 06:59N 53°31' E 008°35'0 0.0
2017-Apr-14 06:29N 53°31' E 008°35'0 0.0
2017-Apr-14 05:59N 53°31' E 008°35'0 0.0
2017-Apr-14 05:26N 53°31' E 008°35'0 0.0
2017-Apr-14 04:59N 53°31' E 008°35'0 0.0
2017-Apr-14 04:29N 53°31' E 008°35'0 0.0
2017-Apr-14 03:59N 53°31' E 008°35'0 0.0
2017-Apr-14 03:29N 53°31' E 008°35'0 0.0
2017-Apr-14 02:59N 53°31' E 008°35'0 0.0
2017-Apr-14 02:29N 53°31' E 008°35'0 0.0
2017-Apr-14 01:59N 53°31' E 008°35'0 0.0
2017-Apr-14 01:29N 53°31' E 008°35'0 0.0
2017-Apr-14 00:59N 53°31' E 008°35'0 0.0
2017-Apr-14 00:29N 53°31' E 008°35'0 0.0
2017-Apr-13 23:59N 53°31' E 008°35'0 0.0
2017-Apr-13 23:29N 53°31' E 008°35'0 0.0
2017-Apr-13 22:59N 53°31' E 008°35'0 0.0
2017-Apr-13 22:29N 53°31' E 008°35'0 0.0
2017-Apr-13 21:59N 53°31' E 008°35'0 0.0
2017-Apr-13 21:29N 53°31' E 008°35'0 0.0
2017-Apr-13 20:59N 53°31' E 008°35'0 0.0
2017-Apr-13 20:29N 53°31' E 008°35'0 0.0
2017-Apr-13 19:59N 53°31' E 008°35'0 0.0
2017-Apr-13 19:29N 53°31' E 008°35'0 0.0
2017-Apr-13 18:59N 53°31' E 008°35'0 0.0
2017-Apr-13 18:29N 53°31' E 008°35'0 0.0
2017-Apr-13 17:59N 53°31' E 008°35'0 0.0
2017-Apr-13 17:29N 53°31' E 008°35'0 0.0
2017-Apr-13 16:59N 53°31' E 008°35'0 0.0
2017-Apr-13 16:29N 53°31' E 008°35'0 0.0
2017-Apr-13 15:59N 53°31' E 008°35'0 0.0
2017-Apr-13 15:29N 53°31' E 008°35'0 0.0
2017-Apr-13 14:59N 53°31' E 008°35'0 0.0
2017-Apr-13 14:29N 53°31' E 008°35'0 0.0
2017-Apr-13 13:29N 53°31' E 008°35'0 0.0
2017-Apr-13 12:59N 53°31' E 008°35'0 0.0
2017-Apr-13 12:29N 53°31' E 008°35'0 0.0
2017-Apr-13 11:59N 53°31' E 008°35'0 0.0
2017-Apr-13 11:29N 53°31' E 008°35'0 0.0
2017-Apr-13 10:59N 53°31' E 008°35'0 0.0
2017-Apr-13 10:29N 53°31' E 008°35'0 0.0
2017-Apr-13 09:59N 53°31' E 008°35'0 0.0
2017-Apr-13 09:29N 53°31' E 008°35'0 0.0
2017-Apr-13 08:59N 53°31' E 008°35'0 0.0
2017-Apr-13 08:29N 53°31' E 008°35'0 0.0
2017-Apr-13 07:59N 53°31' E 008°35'0 0.0
2017-Apr-13 07:29N 53°31' E 008°35'0 0.0
2017-Apr-13 06:59N 53°31' E 008°35'0 0.0
2017-Apr-13 06:29N 53°31' E 008°35'0 0.0
2017-Apr-13 05:59N 53°31' E 008°35'0 0.0
2017-Apr-13 05:29N 53°31' E 008°35'0 0.0
2017-Apr-13 04:59N 53°31' E 008°35'0 0.0
2017-Apr-13 04:29N 53°31' E 008°35'0 0.0
2017-Apr-13 03:59N 53°31' E 008°35'0 0.0
2017-Apr-13 03:26N 53°31' E 008°35'0 0.0
2017-Apr-13 02:59N 53°31' E 008°35'0 0.0
2017-Apr-13 02:29N 53°31' E 008°35'0 0.0
2017-Apr-13 01:59N 53°31' E 008°35'0 0.0
2017-Apr-13 01:29N 53°31' E 008°35'0 0.0
2017-Apr-13 00:59N 53°31' E 008°35'0 0.0
2017-Apr-13 00:29N 53°31' E 008°35'0 0.0
2017-Apr-12 23:59N 53°31' E 008°35'0 0.0
2017-Apr-12 23:29N 53°31' E 008°35'0 0.0
2017-Apr-12 22:59N 53°31' E 008°35'0 0.0
2017-Apr-12 22:29N 53°31' E 008°35'0 0.0
2017-Apr-12 21:59N 53°31' E 008°35'0 0.0
2017-Apr-12 21:29N 53°31' E 008°35'0 0.0
2017-Apr-12 20:59N 53°31' E 008°35'0 0.0
2017-Apr-12 20:29N 53°31' E 008°35'0 0.0
2017-Apr-12 19:59N 53°31' E 008°35'0 0.0
2017-Apr-12 19:29N 53°31' E 008°35'0 0.0
2017-Apr-12 18:56N 53°31' E 008°35'0 0.0
2017-Apr-12 18:29N 53°31' E 008°35'0 0.0
2017-Apr-12 17:59N 53°31' E 008°35'0 0.0
2017-Apr-12 17:29N 53°31' E 008°35'0 0.0
2017-Apr-12 16:56N 53°31' E 008°35'0 0.0
2017-Apr-12 16:29N 53°31' E 008°35'0 0.0
2017-Apr-12 15:59N 53°31' E 008°35'0 0.0
2017-Apr-12 15:29N 53°31' E 008°35'0 0.0
2017-Apr-12 14:59N 53°31' E 008°35'0 0.0
2017-Apr-12 14:29N 53°31' E 008°35'0 0.0
2017-Apr-12 13:29N 53°31' E 008°35'0 0.0
2017-Apr-12 12:59N 53°31' E 008°35'0 0.0
2017-Apr-12 12:29N 53°31' E 008°35'0 0.0
2017-Apr-12 11:59N 53°31' E 008°35'0 0.0
2017-Apr-12 11:29N 53°31' E 008°35'0 0.0
2017-Apr-12 10:59N 53°31' E 008°35'0 0.0
2017-Apr-12 10:29N 53°31' E 008°35'0 0.0
2017-Apr-12 09:59N 53°31' E 008°35'0 0.0
2017-Apr-12 09:29N 53°31' E 008°35'0 0.0
2017-Apr-12 08:59N 53°31' E 008°35'0 0.0
2017-Apr-12 08:29N 53°31' E 008°35'0 0.0
2017-Apr-12 08:00N 53°31' E 008°35'0 0.0
2017-Apr-12 07:30N 53°31' E 008°35'  
Track history (hours):
 
Tides and Currents Weather Stations Pressure Air Temp Water Temp Dewpoint Dewpoint Depression Visibility Wind Speed Wind Dir Waves Ship Positions

Oceanographic research ship Schall (Germany)

Detailed information on ship capabilities available from University of Delaware's Ocean Information Center.

Last reported at 2017-Apr-22 07:13 UTC. Time now 2017-Apr-23 15:52 UTC.
Position N 54°05' E 009°19'.

Length 50 m; draft 2 m.

Type: Ship. MMSI: 211236290.

Date/timePositionNaut miles runAvg speedWind from/ knotsBaromVisibWave heightAir tempDewpointWater temp
2017-Apr-22 07:13N 54°05' E 009°19'2 8.0
2017-Apr-22 07:00N 54°04' E 009°19'4 7.9
2017-Apr-22 06:30N 53°60' E 009°18'4 8.0
2017-Apr-22 06:00N 53°57' E 009°14'4 6.8
2017-Apr-22 05:29N 53°54' E 009°09'0 0.0
2017-Apr-22 04:56N 53°54' E 009°09'0 0.0
2017-Apr-22 04:26N 53°54' E 009°09'0 0.0
2017-Apr-22 03:59N 53°54' E 009°09'0 0.0
2017-Apr-22 03:26N 53°54' E 009°09'0 0.0
2017-Apr-22 02:56N 53°54' E 009°09'0 0.0
2017-Apr-22 02:29N 53°54' E 009°09'0 0.0
2017-Apr-22 01:59N 53°54' E 009°09'0 0.0
2017-Apr-22 01:29N 53°54' E 009°09'0 0.0
2017-Apr-22 00:59N 53°54' E 009°09'0 0.0
2017-Apr-22 00:29N 53°54' E 009°09'0 0.0
2017-Apr-21 23:59N 53°54' E 009°09'0 0.0
2017-Apr-21 23:29N 53°54' E 009°09'0 0.0
2017-Apr-21 22:59N 53°54' E 009°09'0 0.0
2017-Apr-21 22:29N 53°54' E 009°09'0 0.0
2017-Apr-21 21:59N 53°54' E 009°09'0 0.0
2017-Apr-21 21:29N 53°54' E 009°09'0 0.0
2017-Apr-21 20:59N 53°54' E 009°09'0 0.0
2017-Apr-21 20:29N 53°54' E 009°09'0 0.0
2017-Apr-21 19:59N 53°54' E 009°09'0 0.0
2017-Apr-21 19:29N 53°54' E 009°09'0 0.0
2017-Apr-21 18:59N 53°54' E 009°09'0 0.0
2017-Apr-21 18:29N 53°54' E 009°09'0 0.0
2017-Apr-21 17:56N 53°54' E 009°09'0 0.0
2017-Apr-21 17:30N 53°54' E 009°09'1 1.3
2017-Apr-21 17:00N 53°54' E 009°09'3 5.9
2017-Apr-21 16:30N 53°52' E 009°04'5 9.2
2017-Apr-21 16:00N 53°51' E 008°57'4 8.6
2017-Apr-21 15:31N 53°50' E 008°50'4 7.5
2017-Apr-21 15:01N 53°52' E 008°44'4 6.9
2017-Apr-21 14:29N 53°55' E 008°41'7 7.1
2017-Apr-21 13:30N 53°58' E 008°30'4 7.4
2017-Apr-21 12:59N 53°59' E 008°24'4 8.1
2017-Apr-21 12:30N 53°59' E 008°17'5 7.7
2017-Apr-21 11:51N 53°57' E 008°10'3 6.9
2017-Apr-21 11:28N 53°54' E 008°08'3 7.1
2017-Apr-21 11:01N 53°51' E 008°07'4 8.9
2017-Apr-21 10:31N 53°47' E 008°10'5 9.8
2017-Apr-21 10:01N 53°44' E 008°16'510.4
2017-Apr-21 09:30N 53°40' E 008°23'5 9.8
2017-Apr-21 09:00N 53°37' E 008°29'5 9.7
2017-Apr-21 08:30N 53°33' E 008°34'2 3.2
2017-Apr-21 08:00N 53°31' E 008°35'0 0.5
2017-Apr-21 07:29N 53°31' E 008°35'0 0.0
2017-Apr-21 06:59N 53°31' E 008°35'0 0.0
2017-Apr-21 06:29N 53°31' E 008°35'0 0.0
2017-Apr-21 05:59N 53°31' E 008°35'0 0.0
2017-Apr-21 05:29N 53°31' E 008°35'0 0.0
2017-Apr-21 04:59N 53°31' E 008°35'0 0.0
2017-Apr-21 04:29N 53°31' E 008°35'0 0.0
2017-Apr-21 03:59N 53°31' E 008°35'0 0.0
2017-Apr-21 03:29N 53°31' E 008°35'0 0.0
2017-Apr-21 02:59N 53°31' E 008°35'0 0.0
2017-Apr-21 02:29N 53°31' E 008°35'0 0.0
2017-Apr-21 01:59N 53°31' E 008°35'0 0.0
2017-Apr-21 01:29N 53°31' E 008°35'0 0.0
2017-Apr-21 00:59N 53°31' E 008°35'0 0.0
2017-Apr-21 00:29N 53°31' E 008°35'0 0.0
2017-Apr-20 23:56N 53°31' E 008°35'0 0.0
2017-Apr-20 23:29N 53°31' E 008°35'0 0.0
2017-Apr-20 22:59N 53°31' E 008°35'0 0.0
2017-Apr-20 22:29N 53°31' E 008°35'0 0.0
2017-Apr-20 21:59N 53°31' E 008°35'0 0.0
2017-Apr-20 21:29N 53°31' E 008°35'0 0.0
2017-Apr-20 20:59N 53°31' E 008°35'0 0.0
2017-Apr-20 20:29N 53°31' E 008°35'0 0.0
2017-Apr-20 19:59N 53°31' E 008°35'0 0.0
2017-Apr-20 19:29N 53°31' E 008°35'0 0.0
2017-Apr-20 18:59N 53°31' E 008°35'0 0.0
2017-Apr-20 18:29N 53°31' E 008°35'0 0.0
2017-Apr-20 17:59N 53°31' E 008°35'0 0.0
2017-Apr-20 17:29N 53°31' E 008°35'0 0.0
2017-Apr-20 16:59N 53°31' E 008°35'0 0.0
2017-Apr-20 16:29N 53°31' E 008°35'0 0.0
2017-Apr-20 15:56N 53°31' E 008°35'0 0.0
2017-Apr-20 15:26N 53°31' E 008°35'0 0.0
2017-Apr-20 14:59N 53°31' E 008°35'0 0.0
2017-Apr-20 13:59N 53°31' E 008°35'0 0.0
2017-Apr-20 13:29N 53°31' E 008°35'0 0.0
2017-Apr-20 12:59N 53°31' E 008°35'0 0.0
2017-Apr-20 12:29N 53°31' E 008°35'0 0.0
2017-Apr-20 11:59N 53°31' E 008°35'0 0.0
2017-Apr-20 11:29N 53°31' E 008°35'0 0.0
2017-Apr-20 10:59N 53°31' E 008°35'0 0.0
2017-Apr-20 10:29N 53°31' E 008°35'0 0.0
2017-Apr-20 09:59N 53°31' E 008°35'0 0.0
2017-Apr-20 09:29N 53°31' E 008°35'0 0.0
2017-Apr-20 08:59N 53°31' E 008°35'0 0.0
2017-Apr-20 08:29N 53°31' E 008°35'0 0.0
2017-Apr-20 07:59N 53°31' E 008°35'0 0.0
2017-Apr-20 07:29N 53°31' E 008°35'0 0.0
2017-Apr-20 06:59N 53°31' E 008°35'0 0.0
2017-Apr-20 06:29N 53°31' E 008°35'0 0.0
2017-Apr-20 05:59N 53°31' E 008°35'0 0.0
2017-Apr-20 05:29N 53°31' E 008°35'0 0.0
2017-Apr-20 04:59N 53°31' E 008°35'0 0.0
2017-Apr-20 04:29N 53°31' E 008°35'0 0.0
2017-Apr-20 03:59N 53°31' E 008°35'0 0.0
2017-Apr-20 03:29N 53°31' E 008°35'0 0.0
2017-Apr-20 02:59N 53°31' E 008°35'0 0.0
2017-Apr-20 02:29N 53°31' E 008°35'0 0.0
2017-Apr-20 01:59N 53°31' E 008°35'0 0.0
2017-Apr-20 01:29N 53°31' E 008°35'0 0.0
2017-Apr-20 00:59N 53°31' E 008°35'0 0.0
2017-Apr-20 00:29N 53°31' E 008°35'0 0.0
2017-Apr-19 23:59N 53°31' E 008°35'0 0.0
2017-Apr-19 23:29N 53°31' E 008°35'0 0.0
2017-Apr-19 22:59N 53°31' E 008°35'0 0.0
2017-Apr-19 22:29N 53°31' E 008°35'0 0.0
2017-Apr-19 21:59N 53°31' E 008°35'0 0.0
2017-Apr-19 21:29N 53°31' E 008°35'0 0.0
2017-Apr-19 20:59N 53°31' E 008°35'0 0.0
2017-Apr-19 20:29N 53°31' E 008°35'0 0.0
2017-Apr-19 19:59N 53°31' E 008°35'0 0.0
2017-Apr-19 19:29N 53°31' E 008°35'0 0.0
2017-Apr-19 18:59N 53°31' E 008°35'0 0.0
2017-Apr-19 18:29N 53°31' E 008°35'0 0.0
2017-Apr-19 17:59N 53°31' E 008°35'0 0.0
2017-Apr-19 17:29N 53°31' E 008°35'0 0.0
2017-Apr-19 16:59N 53°31' E 008°35'0 0.0
2017-Apr-19 16:29N 53°31' E 008°35'0 0.0
2017-Apr-19 15:59N 53°31' E 008°35'0 0.0
2017-Apr-19 15:29N 53°31' E 008°35'0 0.0
2017-Apr-19 14:59N 53°31' E 008°35'0 0.0
2017-Apr-19 14:29N 53°31' E 008°35'0 0.0
2017-Apr-19 13:20N 53°31' E 008°35'0 0.0
2017-Apr-19 12:59N 53°31' E 008°35'0 0.0
2017-Apr-19 12:29N 53°31' E 008°35'0 0.0
2017-Apr-19 11:59N 53°31' E 008°35'0 0.0
2017-Apr-19 11:29N 53°31' E 008°35'0 0.0
2017-Apr-19 10:59N 53°31' E 008°35'0 0.0
2017-Apr-19 10:29N 53°31' E 008°35'0 0.0
2017-Apr-19 09:59N 53°31' E 008°35'0 0.0
2017-Apr-19 09:29N 53°31' E 008°35'0 0.0
2017-Apr-19 08:59N 53°31' E 008°35'0 0.0
2017-Apr-19 08:26N 53°31' E 008°35'0 0.0
2017-Apr-19 07:59N 53°31' E 008°35'0 0.0
2017-Apr-19 07:29N 53°31' E 008°35'0 0.0
2017-Apr-19 06:56N 53°31' E 008°35'0 0.0
2017-Apr-19 06:29N 53°31' E 008°35'0 0.0
2017-Apr-19 05:59N 53°31' E 008°35'0 0.0
2017-Apr-19 05:29N 53°31' E 008°35'0 0.0
2017-Apr-19 04:59N 53°31' E 008°35'0 0.0
2017-Apr-19 04:29N 53°31' E 008°35'0 0.0
2017-Apr-19 03:59N 53°31' E 008°35'0 0.0
2017-Apr-19 03:29N 53°31' E 008°35'0 0.0
2017-Apr-19 02:59N 53°31' E 008°35'0 0.0
2017-Apr-19 02:26N 53°31' E 008°35'0 0.0
2017-Apr-19 01:59N 53°31' E 008°35'0 0.0
2017-Apr-19 01:29N 53°31' E 008°35'0 0.0
2017-Apr-19 00:59N 53°31' E 008°35'0 0.0
2017-Apr-19 00:26N 53°31' E 008°35'0 0.0
2017-Apr-18 23:59N 53°31' E 008°35'0 0.0
2017-Apr-18 23:29N 53°31' E 008°35'0 0.0
2017-Apr-18 22:59N 53°31' E 008°35'0 0.0
2017-Apr-18 22:29N 53°31' E 008°35'0 0.0
2017-Apr-18 21:59N 53°31' E 008°35'0 0.0
2017-Apr-18 21:29N 53°31' E 008°35'0 0.0
2017-Apr-18 20:59N 53°31' E 008°35'0 0.0
2017-Apr-18 20:26N 53°31' E 008°35'0 0.0
2017-Apr-18 19:59N 53°31' E 008°35'0 0.0
2017-Apr-18 19:29N 53°31' E 008°35'0 0.0
2017-Apr-18 18:59N 53°31' E 008°35'0 0.0
2017-Apr-18 18:29N 53°31' E 008°35'0 0.0
2017-Apr-18 17:59N 53°31' E 008°35'0 0.0
2017-Apr-18 17:29N 53°31' E 008°35'0 0.0
2017-Apr-18 16:59N 53°31' E 008°35'0 0.0
2017-Apr-18 16:29N 53°31' E 008°35'0 0.0
2017-Apr-18 15:59N 53°31' E 008°35'0 0.0
2017-Apr-18 15:29N 53°31' E 008°35'0 0.0
2017-Apr-18 14:59N 53°31' E 008°35'0 0.0
2017-Apr-18 14:29N 53°31' E 008°35'0 0.0
2017-Apr-18 13:29N 53°31' E 008°35'0 0.0
2017-Apr-18 12:59N 53°31' E 008°35'0 0.0
2017-Apr-18 12:29N 53°31' E 008°35'0 0.0
2017-Apr-18 11:59N 53°31' E 008°35'0 0.0
2017-Apr-18 11:29N 53°31' E 008°35'0 0.0
2017-Apr-18 10:59N 53°31' E 008°35'0 0.0
2017-Apr-18 10:29N 53°31' E 008°35'0 0.0
2017-Apr-18 09:59N 53°31' E 008°35'0 0.0
2017-Apr-18 09:29N 53°31' E 008°35'0 0.0
2017-Apr-18 08:59N 53°31' E 008°35'0 0.0
2017-Apr-18 08:29N 53°31' E 008°35'0 0.0
2017-Apr-18 07:59N 53°31' E 008°35'0 0.0
2017-Apr-18 07:29N 53°31' E 008°35'0 0.0
2017-Apr-18 06:56N 53°31' E 008°35'0 0.0
2017-Apr-18 06:29N 53°31' E 008°35'0 0.0
2017-Apr-18 05:59N 53°31' E 008°35'0 0.0
2017-Apr-18 05:20N 53°31' E 008°35'0 0.0
2017-Apr-18 04:59N 53°31' E 008°35'0 0.0
2017-Apr-18 04:29N 53°31' E 008°35'0 0.0
2017-Apr-18 03:59N 53°31' E 008°35'0 0.0
2017-Apr-18 03:29N 53°31' E 008°35'0 0.0
2017-Apr-18 02:59N 53°31' E 008°35'0 0.0
2017-Apr-18 02:29N 53°31' E 008°35'0 0.0
2017-Apr-18 01:59N 53°31' E 008°35'0 0.0
2017-Apr-18 01:29N 53°31' E 008°35'0 0.0
2017-Apr-18 00:59N 53°31' E 008°35'0 0.0
2017-Apr-18 00:29N 53°31' E 008°35'0 0.0
2017-Apr-17 23:59N 53°31' E 008°35'0 0.0
2017-Apr-17 23:29N 53°31' E 008°35'0 0.0
2017-Apr-17 22:59N 53°31' E 008°35'0 0.0
2017-Apr-17 22:29N 53°31' E 008°35'0 0.0
2017-Apr-17 21:59N 53°31' E 008°35'0 0.0
2017-Apr-17 21:29N 53°31' E 008°35'0 0.0
2017-Apr-17 20:59N 53°31' E 008°35'0 0.0
2017-Apr-17 20:29N 53°31' E 008°35'0 0.0
2017-Apr-17 19:59N 53°31' E 008°35'0 0.0
2017-Apr-17 19:29N 53°31' E 008°35'0 0.0
2017-Apr-17 18:59N 53°31' E 008°35'0 0.0
2017-Apr-17 18:29N 53°31' E 008°35'0 0.0
2017-Apr-17 17:59N 53°31' E 008°35'0 0.0
2017-Apr-17 17:29N 53°31' E 008°35'0 0.0
2017-Apr-17 16:59N 53°31' E 008°35'0 0.0
2017-Apr-17 16:29N 53°31' E 008°35'0 0.0
2017-Apr-17 15:59N 53°31' E 008°35'0 0.0
2017-Apr-17 15:29N 53°31' E 008°35'0 0.0
2017-Apr-17 14:59N 53°31' E 008°35'0 0.0
2017-Apr-17 14:29N 53°31' E 008°35'0 0.0
2017-Apr-17 13:29N 53°31' E 008°35'0 0.0
2017-Apr-17 12:59N 53°31' E 008°35'0 0.0
2017-Apr-17 12:29N 53°31' E 008°35'0 0.0
2017-Apr-17 11:59N 53°31' E 008°35'0 0.0
2017-Apr-17 11:29N 53°31' E 008°35'0 0.0
2017-Apr-17 10:59N 53°31' E 008°35'0 0.0
2017-Apr-17 10:29N 53°31' E 008°35'0 0.0
2017-Apr-17 09:59N 53°31' E 008°35'0 0.0
2017-Apr-17 09:29N 53°31' E 008°35'0 0.0
2017-Apr-17 08:59N 53°31' E 008°35'0 0.0
2017-Apr-17 08:29N 53°31' E 008°35'0 0.0
2017-Apr-17 07:59N 53°31' E 008°35'0 0.0
2017-Apr-17 07:29N 53°31' E 008°35'0 0.0
2017-Apr-17 06:59N 53°31' E 008°35'0 0.0
2017-Apr-17 06:29N 53°31' E 008°35'0 0.0
2017-Apr-17 05:59N 53°31' E 008°35'0 0.0
2017-Apr-17 05:29N 53°31' E 008°35'0 0.0
2017-Apr-17 04:59N 53°31' E 008°35'0 0.0
2017-Apr-17 04:29N 53°31' E 008°35'0 0.0
2017-Apr-17 03:59N 53°31' E 008°35'0 0.0
2017-Apr-17 03:26N 53°31' E 008°35'0 0.0
2017-Apr-17 02:59N 53°31' E 008°35'0 0.0
2017-Apr-17 02:29N 53°31' E 008°35'0 0.0
2017-Apr-17 01:59N 53°31' E 008°35'0 0.0
2017-Apr-17 01:29N 53°31' E 008°35'0 0.0
2017-Apr-17 00:59N 53°31' E 008°35'0 0.0
2017-Apr-17 00:29N 53°31' E 008°35'0 0.0
2017-Apr-16 23:59N 53°31' E 008°35'0 0.0
2017-Apr-16 23:29N 53°31' E 008°35'0 0.0
2017-Apr-16 22:59N 53°31' E 008°35'0 0.0
2017-Apr-16 22:29N 53°31' E 008°35'0 0.0
2017-Apr-16 21:59N 53°31' E 008°35'0 0.0
2017-Apr-16 21:29N 53°31' E 008°35'0 0.0
2017-Apr-16 20:59N 53°31' E 008°35'0 0.0
2017-Apr-16 20:29N 53°31' E 008°35'0 0.0
2017-Apr-16 19:59N 53°31' E 008°35'0 0.0
2017-Apr-16 19:29N 53°31' E 008°35'0 0.0
2017-Apr-16 18:59N 53°31' E 008°35'0 0.0
2017-Apr-16 18:29N 53°31' E 008°35'0 0.0
2017-Apr-16 17:59N 53°31' E 008°35'0 0.0
2017-Apr-16 17:29N 53°31' E 008°35'0 0.0
2017-Apr-16 16:59N 53°31' E 008°35'0 0.0
2017-Apr-16 16:29N 53°31' E 008°35'0 0.0
2017-Apr-16 15:59N 53°31' E 008°35'0 0.0
2017-Apr-16 15:29N 53°31' E 008°35'0 0.0
2017-Apr-16 14:59N 53°31' E 008°35'0 0.0
2017-Apr-16 13:59N 53°31' E 008°35'0 0.0
2017-Apr-16 13:29N 53°31' E 008°35'0 0.0
2017-Apr-16 12:59N 53°31' E 008°35'0 0.0
2017-Apr-16 12:29N 53°31' E 008°35'0 0.0
2017-Apr-16 11:59N 53°31' E 008°35'0 0.0
2017-Apr-16 11:29N 53°31' E 008°35'0 0.0
2017-Apr-16 10:59N 53°31' E 008°35'0 0.0
2017-Apr-16 10:29N 53°31' E 008°35'0 0.0
2017-Apr-16 09:59N 53°31' E 008°35'0 0.0
2017-Apr-16 09:29N 53°31' E 008°35'0 0.0
2017-Apr-16 08:59N 53°31' E 008°35'0 0.0
2017-Apr-16 08:29N 53°31' E 008°35'0 0.0
2017-Apr-16 07:59N 53°31' E 008°35'0 0.0
2017-Apr-16 07:29N 53°31' E 008°35'0 0.0
2017-Apr-16 06:59N 53°31' E 008°35'0 0.0
2017-Apr-16 06:29N 53°31' E 008°35'0 0.0
2017-Apr-16 05:59N 53°31' E 008°35'0 0.0
2017-Apr-16 05:29N 53°31' E 008°35'0 0.0
2017-Apr-16 04:59N 53°31' E 008°35'0 0.0
2017-Apr-16 04:29N 53°31' E 008°35'0 0.0
2017-Apr-16 03:59N 53°31' E 008°35'0 0.0
2017-Apr-16 03:29N 53°31' E 008°35'0 0.0
2017-Apr-16 02:59N 53°31' E 008°35'0 0.0
2017-Apr-16 02:29N 53°31' E 008°35'0 0.0
2017-Apr-16 01:59N 53°31' E 008°35'0 0.0
2017-Apr-16 01:29N 53°31' E 008°35'0 0.0
2017-Apr-16 00:59N 53°31' E 008°35'0 0.0
2017-Apr-16 00:29N 53°31' E 008°35'0 0.0
2017-Apr-15 23:59N 53°31' E 008°35'0 0.0
2017-Apr-15 23:29N 53°31' E 008°35'0 0.0
2017-Apr-15 22:59N 53°31' E 008°35'0 0.0
2017-Apr-15 22:29N 53°31' E 008°35'0 0.0
2017-Apr-15 21:59N 53°31' E 008°35'0 0.0
2017-Apr-15 21:29N 53°31' E 008°35'0 0.0
2017-Apr-15 20:59N 53°31' E 008°35'0 0.0
2017-Apr-15 20:29N 53°31' E 008°35'0 0.0
2017-Apr-15 19:59N 53°31' E 008°35'0 0.0
2017-Apr-15 19:29N 53°31' E 008°35'0 0.0
2017-Apr-15 18:59N 53°31' E 008°35'0 0.0
2017-Apr-15 18:29N 53°31' E 008°35'0 0.0
2017-Apr-15 17:59N 53°31' E 008°35'0 0.0
2017-Apr-15 17:29N 53°31' E 008°35'0 0.0
2017-Apr-15 16:59N 53°31' E 008°35'0 0.0
2017-Apr-15 16:29N 53°31' E 008°35'0 0.0
2017-Apr-15 15:53N 53°31' E 008°35'0 0.0
2017-Apr-15 15:29N 53°31' E 008°35'0 0.0
2017-Apr-15 14:59N 53°31' E 008°35'0 0.0
2017-Apr-15 14:29N 53°31' E 008°35'0 0.0
2017-Apr-15 13:29N 53°31' E 008°35'0 0.0
2017-Apr-15 12:59N 53°31' E 008°35'0 0.0
2017-Apr-15 12:29N 53°31' E 008°35'0 0.0
2017-Apr-15 11:59N 53°31' E 008°35'0 0.0
2017-Apr-15 11:29N 53°31' E 008°35'0 0.0
2017-Apr-15 10:59N 53°31' E 008°35'0 0.0
2017-Apr-15 10:29N 53°31' E 008°35'0 0.0
2017-Apr-15 09:59N 53°31' E 008°35'0 0.0
2017-Apr-15 09:29N 53°31' E 008°35'0 0.0
2017-Apr-15 08:59N 53°31' E 008°35'0 0.0
2017-Apr-15 08:29N 53°31' E 008°35'0 0.0
2017-Apr-15 07:59N 53°31' E 008°35'0 0.0
2017-Apr-15 07:29N 53°31' E 008°35'0 0.0
2017-Apr-15 06:59N 53°31' E 008°35'0 0.0
2017-Apr-15 06:29N 53°31' E 008°35'0 0.0
2017-Apr-15 05:59N 53°31' E 008°35'0 0.0
2017-Apr-15 05:29N 53°31' E 008°35'0 0.0
2017-Apr-15 04:59N 53°31' E 008°35'0 0.0
2017-Apr-15 04:29N 53°31' E 008°35'0 0.0
2017-Apr-15 03:59N 53°31' E 008°35'0 0.0
2017-Apr-15 03:29N 53°31' E 008°35'0 0.0
2017-Apr-15 02:59N 53°31' E 008°35'0 0.0
2017-Apr-15 02:29N 53°31' E 008°35'0 0.0
2017-Apr-15 01:59N 53°31' E 008°35'0 0.0
2017-Apr-15 01:20N 53°31' E 008°35'0 0.0
2017-Apr-15 00:59N 53°31' E 008°35'0 0.0
2017-Apr-15 00:29N 53°31' E 008°35'0 0.0
2017-Apr-14 23:56N 53°31' E 008°35'0 0.0
2017-Apr-14 23:23N 53°31' E 008°35'0 0.0
2017-Apr-14 22:59N 53°31' E 008°35'0 0.0
2017-Apr-14 22:29N 53°31' E 008°35'0 0.0
2017-Apr-14 21:59N 53°31' E 008°35'0 0.0
2017-Apr-14 21:29N 53°31' E 008°35'0 0.0
2017-Apr-14 20:53N 53°31' E 008°35'0 0.0
2017-Apr-14 20:29N 53°31' E 008°35'0 0.0
2017-Apr-14 19:59N 53°31' E 008°35'0 0.0
2017-Apr-14 19:29N 53°31' E 008°35'0 0.0
2017-Apr-14 18:59N 53°31' E 008°35'0 0.0
2017-Apr-14 18:26N 53°31' E 008°35'0 0.0
2017-Apr-14 17:59N 53°31' E 008°35'0 0.0
2017-Apr-14 17:23N 53°31' E 008°35'0 0.0
2017-Apr-14 16:56N 53°31' E 008°35'0 0.0
2017-Apr-14 16:29N 53°31' E 008°35'0 0.0
2017-Apr-14 15:59N 53°31' E 008°35'0 0.0
2017-Apr-14 15:26N 53°31' E 008°35'0 0.0
2017-Apr-14 14:59N 53°31' E 008°35'0 0.0
2017-Apr-14 14:29N 53°31' E 008°35'0 0.0
2017-Apr-14 13:29N 53°31' E 008°35'0 0.0
2017-Apr-14 12:59N 53°31' E 008°35'0 0.0
2017-Apr-14 12:29N 53°31' E 008°35'0 0.0
2017-Apr-14 11:59N 53°31' E 008°35'0 0.0
2017-Apr-14 11:29N 53°31' E 008°35'0 0.0
2017-Apr-14 10:59N 53°31' E 008°35'0 0.0
2017-Apr-14 10:29N 53°31' E 008°35'0 0.0
2017-Apr-14 09:59N 53°31' E 008°35'0 0.0
2017-Apr-14 09:26N 53°31' E 008°35'0 0.0
2017-Apr-14 08:59N 53°31' E 008°35'0 0.0
2017-Apr-14 08:29N 53°31' E 008°35'0 0.0
2017-Apr-14 07:59N 53°31' E 008°35'0 0.0
2017-Apr-14 07:29N 53°31' E 008°35'0 0.0
2017-Apr-14 06:59N 53°31' E 008°35'0 0.0
2017-Apr-14 06:29N 53°31' E 008°35'0 0.0
2017-Apr-14 05:59N 53°31' E 008°35'0 0.0
2017-Apr-14 05:26N 53°31' E 008°35'0 0.0
2017-Apr-14 04:59N 53°31' E 008°35'0 0.0
2017-Apr-14 04:29N 53°31' E 008°35'0 0.0
2017-Apr-14 03:59N 53°31' E 008°35'0 0.0
2017-Apr-14 03:29N 53°31' E 008°35'0 0.0
2017-Apr-14 02:59N 53°31' E 008°35'0 0.0
2017-Apr-14 02:29N 53°31' E 008°35'0 0.0
2017-Apr-14 01:59N 53°31' E 008°35'0 0.0
2017-Apr-14 01:29N 53°31' E 008°35'0 0.0
2017-Apr-14 00:59N 53°31' E 008°35'0 0.0
2017-Apr-14 00:29N 53°31' E 008°35'0 0.0
2017-Apr-13 23:59N 53°31' E 008°35'0 0.0
2017-Apr-13 23:29N 53°31' E 008°35'0 0.0
2017-Apr-13 22:59N 53°31' E 008°35'0 0.0
2017-Apr-13 22:29N 53°31' E 008°35'0 0.0
2017-Apr-13 21:59N 53°31' E 008°35'0 0.0
2017-Apr-13 21:29N 53°31' E 008°35'0 0.0
2017-Apr-13 20:59N 53°31' E 008°35'0 0.0
2017-Apr-13 20:29N 53°31' E 008°35'0 0.0
2017-Apr-13 19:59N 53°31' E 008°35'0 0.0
2017-Apr-13 19:29N 53°31' E 008°35'0 0.0
2017-Apr-13 18:59N 53°31' E 008°35'0 0.0
2017-Apr-13 18:29N 53°31' E 008°35'0 0.0
2017-Apr-13 17:59N 53°31' E 008°35'0 0.0
2017-Apr-13 17:29N 53°31' E 008°35'0 0.0
2017-Apr-13 16:59N 53°31' E 008°35'0 0.0
2017-Apr-13 16:29N 53°31' E 008°35'0 0.0
2017-Apr-13 15:59N 53°31' E 008°35'0 0.0
2017-Apr-13 15:29N 53°31' E 008°35'0 0.0
2017-Apr-13 14:59N 53°31' E 008°35'0 0.0
2017-Apr-13 14:29N 53°31' E 008°35'0 0.0
2017-Apr-13 13:29N 53°31' E 008°35'0 0.0
2017-Apr-13 12:59N 53°31' E 008°35'0 0.0
2017-Apr-13 12:29N 53°31' E 008°35'0 0.0
2017-Apr-13 11:59N 53°31' E 008°35'0 0.0
2017-Apr-13 11:29N 53°31' E 008°35'0 0.0
2017-Apr-13 10:59N 53°31' E 008°35'0 0.0
2017-Apr-13 10:29N 53°31' E 008°35'0 0.0
2017-Apr-13 09:59N 53°31' E 008°35'0 0.0
2017-Apr-13 09:29N 53°31' E 008°35'0 0.0
2017-Apr-13 08:59N 53°31' E 008°35'0 0.0
2017-Apr-13 08:29N 53°31' E 008°35'0 0.0
2017-Apr-13 07:59N 53°31' E 008°35'0 0.0
2017-Apr-13 07:29N 53°31' E 008°35'0 0.0
2017-Apr-13 06:59N 53°31' E 008°35'0 0.0
2017-Apr-13 06:29N 53°31' E 008°35'0 0.0
2017-Apr-13 05:59N 53°31' E 008°35'0 0.0
2017-Apr-13 05:29N 53°31' E 008°35'0 0.0
2017-Apr-13 04:59N 53°31' E 008°35'0 0.0
2017-Apr-13 04:29N 53°31' E 008°35'0 0.0
2017-Apr-13 03:59N 53°31' E 008°35'0 0.0
2017-Apr-13 03:26N 53°31' E 008°35'0 0.0
2017-Apr-13 02:59N 53°31' E 008°35'0 0.0
2017-Apr-13 02:29N 53°31' E 008°35'0 0.0
2017-Apr-13 01:59N 53°31' E 008°35'0 0.0
2017-Apr-13 01:29N 53°31' E 008°35'0 0.0
2017-Apr-13 00:59N 53°31' E 008°35'0 0.0
2017-Apr-13 00:29N 53°31' E 008°35'0 0.0
2017-Apr-12 23:59N 53°31' E 008°35'0 0.0
2017-Apr-12 23:29N 53°31' E 008°35'0 0.0
2017-Apr-12 22:59N 53°31' E 008°35'0 0.0
2017-Apr-12 22:29N 53°31' E 008°35'0 0.0
2017-Apr-12 21:59N 53°31' E 008°35'0 0.0
2017-Apr-12 21:29N 53°31' E 008°35'0 0.0
2017-Apr-12 20:59N 53°31' E 008°35'0 0.0
2017-Apr-12 20:29N 53°31' E 008°35'0 0.0
2017-Apr-12 19:59N 53°31' E 008°35'0 0.0
2017-Apr-12 19:29N 53°31' E 008°35'0 0.0
2017-Apr-12 18:56N 53°31' E 008°35'0 0.0
2017-Apr-12 18:29N 53°31' E 008°35'0 0.0
2017-Apr-12 17:59N 53°31' E 008°35'0 0.0
2017-Apr-12 17:29N 53°31' E 008°35'0 0.0
2017-Apr-12 16:56N 53°31' E 008°35'0 0.0
2017-Apr-12 16:29N 53°31' E 008°35'0 0.0
2017-Apr-12 15:59N 53°31' E 008°35'0 0.0
2017-Apr-12 15:29N 53°31' E 008°35'0 0.0
2017-Apr-12 14:59N 53°31' E 008°35'0 0.0
2017-Apr-12 14:29N 53°31' E 008°35'0 0.0
2017-Apr-12 13:29N 53°31' E 008°35'0 0.0
2017-Apr-12 12:59N 53°31' E 008°35'0 0.0
2017-Apr-12 12:29N 53°31' E 008°35'0 0.0
2017-Apr-12 11:59N 53°31' E 008°35'0 0.0
2017-Apr-12 11:29N 53°31' E 008°35'0 0.0
2017-Apr-12 10:59N 53°31' E 008°35'0 0.0
2017-Apr-12 10:29N 53°31' E 008°35'0 0.0
2017-Apr-12 09:59N 53°31' E 008°35'0 0.0
2017-Apr-12 09:29N 53°31' E 008°35'0 0.0
2017-Apr-12 08:59N 53°31' E 008°35'0 0.0
2017-Apr-12 08:29N 53°31' E 008°35'0 0.0
2017-Apr-12 08:00N 53°31' E 008°35'0 0.0
2017-Apr-12 07:30N 53°31' E 008°35'  

Dump ship's entire track history